createdAt,value
2022-07-26T00:02:22.928Z,20.92
2022-07-26T00:04:54.899Z,20.90
2022-07-26T00:07:26.747Z,20.88
2022-07-26T00:10:09.340Z,20.87
2022-07-26T00:12:41.906Z,20.85
2022-07-26T00:15:14.413Z,20.84
2022-07-26T00:17:46.290Z,20.84
2022-07-26T00:20:18.084Z,20.82
2022-07-26T00:22:49.869Z,20.81
2022-07-26T00:25:22.208Z,20.80
2022-07-26T00:27:54.078Z,20.79
2022-07-26T00:30:25.977Z,20.79
2022-07-26T00:32:57.836Z,20.78
2022-07-26T00:35:29.845Z,20.78
2022-07-26T00:38:01.684Z,20.79
2022-07-26T00:40:34.013Z,20.80
2022-07-26T00:43:06.063Z,20.82
2022-07-26T00:45:37.938Z,20.82
2022-07-26T00:48:10.121Z,20.84
2022-07-26T00:50:42.073Z,20.84
2022-07-26T00:53:13.898Z,20.85
2022-07-26T00:55:45.828Z,20.85
2022-07-26T00:58:17.825Z,20.85
2022-07-26T01:00:50.100Z,20.86
2022-07-26T01:03:22.100Z,20.87
2022-07-26T01:05:54.443Z,20.87
2022-07-26T01:08:27.005Z,20.87
2022-07-26T01:10:59.484Z,20.87
2022-07-26T01:13:35.070Z,20.86
2022-07-26T01:16:08.634Z,20.86
2022-07-26T01:18:40.602Z,20.86
2022-07-26T01:21:14.355Z,20.86
2022-07-26T01:23:46.796Z,20.86
2022-07-26T01:26:18.704Z,20.86
2022-07-26T01:28:51.779Z,20.86
2022-07-26T01:31:23.673Z,20.86
2022-07-26T01:33:55.595Z,20.85
2022-07-26T01:36:27.438Z,20.84
2022-07-26T01:38:59.259Z,20.83
2022-07-26T01:41:38.125Z,20.81
2022-07-26T01:44:10.853Z,20.80
2022-07-26T01:46:42.987Z,20.79
2022-07-26T01:49:15.138Z,20.78
2022-07-26T01:51:47.055Z,20.77
2022-07-26T01:54:22.422Z,20.76
2022-07-26T01:56:56.618Z,20.75
2022-07-26T01:59:28.399Z,20.75
2022-07-26T02:02:00.282Z,20.74
2022-07-26T02:04:50.355Z,20.74
2022-07-26T02:07:22.293Z,20.74
2022-07-26T02:09:54.092Z,20.75
2022-07-26T02:12:26.210Z,20.74
2022-07-26T02:14:58.218Z,20.72
2022-07-26T02:17:30.164Z,20.72
2022-07-26T02:20:02.400Z,20.72
2022-07-26T02:22:34.216Z,20.72
2022-07-26T02:25:07.184Z,20.72
2022-07-26T02:27:38.993Z,20.71
2022-07-26T02:30:13.622Z,20.69
2022-07-26T02:32:47.835Z,20.70
2022-07-26T02:35:19.656Z,20.70
2022-07-26T02:37:51.615Z,20.69
2022-07-26T02:40:23.441Z,20.69
2022-07-26T02:42:55.235Z,20.68
2022-07-26T02:45:27.265Z,20.66
2022-07-26T02:47:59.488Z,20.64
2022-07-26T02:50:31.645Z,20.62
2022-07-26T02:53:03.462Z,20.60
2022-07-26T02:55:35.321Z,20.59
2022-07-26T02:58:07.140Z,20.59
2022-07-26T03:00:38.949Z,20.59
2022-07-26T03:03:14.216Z,20.58
2022-07-26T03:05:46.451Z,20.56
2022-07-26T03:08:18.307Z,20.55
2022-07-26T03:10:50.186Z,20.53
2022-07-26T03:13:22.289Z,20.51
2022-07-26T03:15:54.204Z,20.50
2022-07-26T03:18:26.139Z,20.48
2022-07-26T03:20:57.940Z,20.47
2022-07-26T03:23:33.508Z,20.46
2022-07-26T03:26:05.771Z,20.46
2022-07-26T03:28:39.609Z,20.46
2022-07-26T03:31:11.753Z,20.45
2022-07-26T03:33:43.733Z,20.47
2022-07-26T03:36:16.363Z,20.48
2022-07-26T03:38:48.176Z,20.48
2022-07-26T03:41:20.200Z,20.49
2022-07-26T03:43:52.000Z,20.51
2022-07-26T03:46:24.139Z,20.55
2022-07-26T03:48:56.415Z,20.57
2022-07-26T03:51:28.518Z,20.58
2022-07-26T03:54:00.441Z,20.58
2022-07-26T03:56:35.453Z,20.57
2022-07-26T03:59:09.076Z,20.59
2022-07-26T04:01:42.879Z,20.58
2022-07-26T04:04:17.837Z,20.58
2022-07-26T04:06:50.496Z,20.58
2022-07-26T04:09:22.461Z,20.58
2022-07-26T04:11:54.518Z,20.58
2022-07-26T04:14:26.302Z,20.60
2022-07-26T04:16:58.186Z,20.63
2022-07-26T04:19:30.163Z,20.65
2022-07-26T04:22:02.031Z,20.65
2022-07-26T04:24:33.860Z,20.65
2022-07-26T04:27:05.859Z,20.65
2022-07-26T04:29:37.651Z,20.67
2022-07-26T04:32:09.975Z,20.68
2022-07-26T04:34:41.785Z,20.70
2022-07-26T04:37:13.618Z,20.72
2022-07-26T04:39:45.452Z,20.72
2022-07-26T04:42:17.233Z,20.70
2022-07-26T04:44:49.036Z,20.70
2022-07-26T04:47:20.787Z,20.70
2022-07-26T04:49:52.570Z,20.69
2022-07-26T04:52:24.446Z,20.68
2022-07-26T04:54:56.252Z,20.68
2022-07-26T04:57:28.142Z,20.67
2022-07-26T05:00:20.277Z,20.68
2022-07-26T05:02:54.728Z,20.73
2022-07-26T05:05:30.845Z,20.77
2022-07-26T05:08:04.476Z,20.82
2022-07-26T05:10:40.616Z,20.88
2022-07-26T05:13:12.660Z,20.91
2022-07-26T05:15:44.508Z,20.94
2022-07-26T05:18:17.280Z,20.99
2022-07-26T05:20:51.711Z,21.04
2022-07-26T05:23:23.515Z,21.06
2022-07-26T05:25:55.493Z,21.07
2022-07-26T05:28:27.524Z,21.09
2022-07-26T05:30:59.352Z,21.09
2022-07-26T05:33:31.223Z,21.08
2022-07-26T05:36:03.045Z,21.08
2022-07-26T05:38:34.887Z,21.05
2022-07-26T05:41:07.322Z,21.01
2022-07-26T05:43:41.066Z,20.99
2022-07-26T05:46:16.090Z,20.98
2022-07-26T05:48:48.038Z,20.96
2022-07-26T05:51:19.984Z,20.94
2022-07-26T05:53:53.408Z,20.95
2022-07-26T05:56:25.240Z,20.91
2022-07-26T05:58:57.216Z,20.81
2022-07-26T06:01:32.518Z,20.69
2022-07-26T06:04:04.898Z,20.56
2022-07-26T06:06:36.938Z,20.50
2022-07-26T06:09:08.728Z,20.38
2022-07-26T06:11:40.493Z,20.24
2022-07-26T06:14:12.825Z,20.18
2022-07-26T06:16:44.974Z,20.16
2022-07-26T06:19:17.282Z,20.14
2022-07-26T06:21:49.150Z,20.10
2022-07-26T06:24:20.965Z,20.02
2022-07-26T06:26:57.090Z,19.91
2022-07-26T06:29:36.718Z,19.86
2022-07-26T06:32:09.402Z,19.78
2022-07-26T06:34:41.263Z,19.65
2022-07-26T06:37:13.082Z,19.60
2022-07-26T06:39:44.920Z,19.58
2022-07-26T06:42:16.680Z,19.65
2022-07-26T06:44:48.510Z,19.64
2022-07-26T06:47:20.312Z,19.70
2022-07-26T06:49:52.359Z,19.74
2022-07-26T06:52:24.298Z,19.81
2022-07-26T06:54:56.201Z,19.92
2022-07-26T06:57:28.418Z,19.98
2022-07-26T07:00:00.237Z,19.98
2022-07-26T07:02:32.013Z,19.99
2022-07-26T07:05:04.083Z,19.96
2022-07-26T07:07:37.854Z,19.95
2022-07-26T07:10:12.635Z,19.94
2022-07-26T07:12:45.015Z,19.93
2022-07-26T07:15:16.836Z,19.90
2022-07-26T07:17:49.159Z,19.94
2022-07-26T07:20:20.941Z,20.07
2022-07-26T07:22:52.880Z,20.23
2022-07-26T07:25:30.771Z,20.41
2022-07-26T07:28:03.134Z,20.57
2022-07-26T07:30:35.035Z,20.62
2022-07-26T07:33:09.520Z,20.58
2022-07-26T07:35:55.240Z,20.54
2022-07-26T07:38:27.047Z,20.52
2022-07-26T07:41:02.117Z,20.55
2022-07-26T07:43:34.174Z,20.61
2022-07-26T07:46:07.331Z,20.70
2022-07-26T07:48:46.600Z,20.73
2022-07-26T07:51:19.473Z,20.78
2022-07-26T07:53:56.708Z,20.70
2022-07-26T07:56:29.887Z,20.62
2022-07-26T07:59:02.007Z,20.56
2022-07-26T08:01:39.690Z,20.62
2022-07-26T08:04:12.618Z,20.55
2022-07-26T08:06:50.424Z,20.40
2022-07-26T08:09:23.506Z,20.29
2022-07-26T08:11:55.306Z,20.24
2022-07-26T08:14:27.132Z,20.24
2022-07-26T08:16:59.228Z,20.19
2022-07-26T08:19:41.927Z,20.20
2022-07-26T08:22:14.522Z,20.17
2022-07-26T08:24:47.099Z,20.11
2022-07-26T08:27:19.083Z,20.06
2022-07-26T08:29:50.948Z,20.03
2022-07-26T08:32:22.880Z,19.93
2022-07-26T08:34:54.793Z,19.93
2022-07-26T08:37:46.565Z,19.93
2022-07-26T08:40:18.750Z,19.97
2022-07-26T08:42:53.870Z,19.94
2022-07-26T08:45:26.924Z,19.94
2022-07-26T08:50:51.956Z,20.00
2022-07-26T08:53:24.059Z,20.00
2022-07-26T08:56:07.787Z,20.07
2022-07-26T08:58:40.994Z,20.00
2022-07-26T09:01:14.387Z,20.01
2022-07-26T09:03:47.043Z,20.06
2022-07-26T09:06:21.090Z,20.01
2022-07-26T09:08:54.498Z,20.06
2022-07-26T09:11:32.143Z,20.14
2022-07-26T09:14:06.670Z,20.23
2022-07-26T09:16:40.026Z,20.26
2022-07-26T09:19:23.893Z,20.25
2022-07-26T09:22:10.093Z,20.26
2022-07-26T09:24:44.334Z,20.24
2022-07-26T09:27:17.830Z,20.30
2022-07-26T09:29:51.611Z,20.34
2022-07-26T09:32:26.462Z,20.37
2022-07-26T09:35:44.183Z,20.43
2022-07-26T09:38:12.982Z,20.37
2022-07-26T09:40:50.463Z,20.35
2022-07-26T09:43:24.479Z,20.34
2022-07-26T09:46:11.060Z,20.35
2022-07-26T09:54:38.266Z,20.55
2022-07-26T09:57:10.180Z,20.65
2022-07-26T09:59:42.327Z,20.81
2022-07-26T10:02:15.119Z,20.92
2022-07-26T10:04:47.025Z,20.96
2022-07-26T10:07:19.589Z,21.02
2022-07-26T10:09:58.482Z,21.18
2022-07-26T10:12:34.386Z,21.29
2022-07-26T10:15:07.489Z,21.39
2022-07-26T10:17:43.331Z,21.56
2022-07-26T10:20:43.295Z,21.64
2022-07-26T10:23:43.223Z,21.71
2022-07-26T10:26:30.007Z,21.78
2022-07-26T10:29:25.813Z,21.82
2022-07-26T10:32:20.522Z,21.90
2022-07-26T10:34:52.425Z,21.92
2022-07-26T10:37:30.509Z,21.93
2022-07-26T10:40:25.667Z,21.98
2022-07-26T10:43:37.979Z,22.07
2022-07-26T10:46:28.262Z,22.17
2022-07-26T10:49:03.754Z,22.25
2022-07-26T12:04:06.946Z,24.72
2022-07-26T12:19:32.385Z,24.97
2022-07-26T12:33:02.390Z,25.26
2022-07-26T12:35:34.853Z,25.20
2022-07-26T12:38:03.623Z,25.00
2022-07-26T12:40:41.334Z,24.85
2022-07-26T12:43:10.887Z,24.74
2022-07-26T12:45:39.690Z,24.69
2022-07-26T12:48:11.200Z,24.67
2022-07-26T12:50:40.005Z,24.65
2022-07-26T12:53:14.649Z,24.61
2022-07-26T12:55:43.071Z,24.64
2022-07-26T12:58:11.504Z,24.62
2022-07-26T13:00:40.439Z,24.59
2022-07-26T13:03:08.988Z,24.56
2022-07-26T13:05:37.614Z,24.49
2022-07-26T13:08:06.367Z,24.36
2022-07-26T13:10:35.972Z,24.32
2022-07-26T13:13:04.832Z,24.36
2022-07-26T13:15:36.533Z,24.40
2022-07-26T13:18:07.778Z,24.42
2022-07-26T13:20:38.025Z,24.44
2022-07-26T13:23:11.248Z,24.46
2022-07-26T13:25:40.725Z,24.48
2022-07-26T13:28:09.643Z,24.49
2022-07-26T13:30:42.221Z,24.49
2022-07-26T13:33:12.039Z,24.49
2022-07-26T13:35:41.854Z,24.43
2022-07-26T13:38:10.375Z,24.45
2022-07-26T13:40:38.937Z,24.47
2022-07-26T13:43:07.382Z,24.48
2022-07-26T13:45:35.956Z,24.48
2022-07-26T13:48:05.244Z,24.47
2022-07-26T13:50:33.793Z,24.45
2022-07-26T13:53:02.278Z,24.49
2022-07-26T13:55:30.789Z,24.55
2022-07-26T13:57:59.195Z,24.60
2022-07-26T14:00:29.010Z,24.63
2022-07-26T14:02:59.477Z,24.67
2022-07-26T14:05:28.646Z,24.67
2022-07-26T14:07:57.061Z,24.68
2022-07-26T14:10:25.865Z,24.70
2022-07-26T14:12:54.421Z,24.69
2022-07-26T14:15:23.661Z,24.67
2022-07-26T14:17:52.679Z,24.67
2022-07-26T14:20:21.716Z,24.65
2022-07-26T14:22:53.006Z,24.61
2022-07-26T14:25:22.082Z,24.61
2022-07-26T14:27:56.732Z,24.59
2022-07-26T14:30:28.409Z,24.55
2022-07-26T14:32:56.835Z,24.49
2022-07-26T14:35:28.400Z,24.46
2022-07-26T14:37:57.067Z,24.42
2022-07-26T14:40:25.798Z,24.41
2022-07-26T14:42:54.519Z,24.40
2022-07-26T14:45:22.958Z,24.31
2022-07-26T14:47:51.373Z,24.27
2022-07-26T14:50:22.264Z,24.26
2022-07-26T14:52:50.678Z,24.24
2022-07-26T14:55:25.047Z,24.25
2022-07-26T14:57:54.923Z,24.31
2022-07-26T15:00:26.284Z,24.34
2022-07-26T15:02:54.796Z,24.36
2022-07-26T15:05:24.696Z,24.40
2022-07-26T15:07:53.353Z,24.45
2022-07-26T15:10:28.667Z,24.52
2022-07-26T15:12:57.565Z,24.59
2022-07-26T15:15:26.501Z,24.60
2022-07-26T15:17:55.293Z,24.60
2022-07-26T15:20:24.740Z,24.57
2022-07-26T15:22:53.725Z,24.53
2022-07-26T15:25:23.717Z,24.56
2022-07-26T15:27:52.704Z,24.62
2022-07-26T15:30:21.266Z,24.69
2022-07-26T15:32:53.957Z,24.77
2022-07-26T15:35:22.570Z,24.83
2022-07-26T15:37:51.210Z,24.86
2022-07-26T15:40:20.476Z,24.85
2022-07-26T15:42:51.400Z,24.76
2022-07-26T15:45:21.912Z,24.72
2022-07-26T15:47:57.385Z,24.70
2022-07-26T15:50:30.003Z,24.73
2022-07-26T15:52:58.473Z,24.71
2022-07-26T15:55:26.961Z,24.69
2022-07-26T15:57:55.605Z,24.65
2022-07-26T16:00:24.231Z,24.62
2022-07-26T16:02:52.736Z,24.60
2022-07-26T16:05:21.280Z,24.59
2022-07-26T16:07:49.898Z,24.61
2022-07-26T16:10:18.772Z,24.63
2022-07-26T16:12:47.492Z,24.66
2022-07-26T16:15:16.147Z,24.68
2022-07-26T16:17:44.561Z,24.67
2022-07-26T16:20:13.027Z,24.77
2022-07-26T16:22:41.502Z,24.87
2022-07-26T16:25:12.983Z,24.93
2022-07-26T16:27:43.125Z,25.02
2022-07-26T16:30:14.707Z,25.06
2022-07-26T16:32:43.213Z,25.05
2022-07-26T16:35:12.737Z,24.99
2022-07-26T16:37:41.637Z,24.89
2022-07-26T16:40:11.843Z,24.81
2022-07-26T16:42:40.328Z,24.75
2022-07-26T16:45:10.182Z,24.72
2022-07-26T16:47:38.630Z,24.65
2022-07-26T16:50:08.667Z,24.55
2022-07-26T16:52:37.146Z,24.48
2022-07-26T16:55:10.295Z,24.44
2022-07-26T16:57:39.042Z,24.41
2022-07-26T17:00:11.441Z,24.34
2022-07-26T17:02:39.946Z,24.25
2022-07-26T17:05:10.286Z,24.17
2022-07-26T17:07:38.728Z,24.15
2022-07-26T17:10:10.830Z,24.14
2022-07-26T17:12:40.309Z,24.14
2022-07-26T17:15:11.048Z,24.15
2022-07-26T17:17:40.102Z,24.15
2022-07-26T17:20:11.201Z,24.16
2022-07-26T17:22:39.589Z,24.15
2022-07-26T17:25:09.547Z,24.15
2022-07-26T17:27:38.122Z,24.11
2022-07-26T17:30:09.330Z,24.07
2022-07-26T17:32:37.881Z,24.05
2022-07-26T17:35:07.806Z,24.03
2022-07-26T17:37:36.746Z,23.99
2022-07-26T17:40:08.131Z,23.95
2022-07-26T17:42:37.358Z,23.93
2022-07-26T17:45:08.740Z,23.90
2022-07-26T17:47:37.226Z,23.86
2022-07-26T17:52:56.336Z,23.71
2022-07-26T17:55:25.097Z,23.64
2022-07-26T17:57:53.540Z,23.56
2022-07-26T18:00:23.289Z,23.46
2022-07-26T18:02:55.895Z,23.38
2022-07-26T18:05:32.254Z,23.30
2022-07-26T18:08:02.652Z,23.23
2022-07-26T18:10:31.240Z,23.15
2022-07-26T18:12:59.620Z,23.10
2022-07-26T18:15:28.094Z,23.06
2022-07-26T18:17:56.513Z,23.03
2022-07-26T18:20:25.182Z,22.99
2022-07-26T18:22:54.365Z,22.93
2022-07-26T18:25:23.147Z,22.87
2022-07-26T18:27:53.242Z,22.82
2022-07-26T18:30:21.711Z,22.74
2022-07-26T18:32:50.741Z,22.61
2022-07-26T18:35:19.389Z,22.49
2022-07-26T18:37:48.103Z,22.40
2022-07-26T18:40:16.597Z,22.26
2022-07-26T18:42:45.043Z,22.13
2022-07-26T18:45:13.840Z,22.02
2022-07-26T18:47:42.687Z,21.95
2022-07-26T18:50:12.562Z,21.86
2022-07-26T18:52:46.095Z,21.72
2022-07-26T18:55:14.959Z,21.56
2022-07-26T18:57:44.114Z,21.45
2022-07-26T19:00:16.336Z,21.34
2022-07-26T19:02:46.217Z,21.25
2022-07-26T19:05:16.061Z,21.14
2022-07-26T19:07:45.269Z,21.03
2022-07-26T19:10:14.768Z,20.94
2022-07-26T19:12:44.732Z,20.87
2022-07-26T19:15:13.126Z,20.77
2022-07-26T19:17:41.739Z,20.73
2022-07-26T19:20:10.871Z,20.67
2022-07-26T19:22:39.935Z,20.62
2022-07-26T19:25:10.246Z,20.55
2022-07-26T19:27:38.899Z,20.51
2022-07-26T19:30:10.095Z,20.45
2022-07-26T19:32:38.889Z,20.36
2022-07-26T19:35:09.642Z,20.28
2022-07-26T19:37:38.101Z,20.21
2022-07-26T19:40:08.819Z,20.16
2022-07-26T19:42:37.383Z,20.13
2022-07-26T19:45:07.395Z,20.11
2022-07-26T19:47:36.804Z,20.09
2022-07-26T19:50:08.511Z,20.03
2022-07-26T19:52:37.539Z,20.03
2022-07-26T19:55:07.801Z,20.02
2022-07-26T19:57:36.348Z,19.98
2022-07-26T20:00:07.006Z,19.96
2022-07-26T20:02:41.814Z,19.92
2022-07-26T20:05:11.583Z,19.89
2022-07-26T20:07:40.642Z,19.87
2022-07-26T20:10:09.723Z,19.84
2022-07-26T20:12:38.891Z,19.81
2022-07-26T20:15:09.256Z,19.78
2022-07-26T20:17:39.151Z,19.74
2022-07-26T20:20:10.358Z,19.71
2022-07-26T20:22:38.754Z,19.68
2022-07-26T20:25:09.283Z,19.65
2022-07-26T20:27:37.947Z,19.60
2022-07-26T20:30:09.317Z,19.55
2022-07-26T20:32:37.845Z,19.50
2022-07-26T20:35:08.304Z,19.47
2022-07-26T20:37:37.030Z,19.43
2022-07-26T20:40:09.329Z,19.38
2022-07-26T20:42:40.480Z,19.31
2022-07-26T20:45:13.284Z,19.27
2022-07-26T20:47:42.292Z,19.23
2022-07-26T20:50:11.727Z,19.20
2022-07-26T20:52:40.496Z,19.18
2022-07-26T20:55:10.209Z,19.14
2022-07-26T20:57:38.710Z,19.05
2022-07-26T21:00:10.777Z,19.03
2022-07-26T21:02:39.343Z,19.00
2022-07-26T21:05:09.432Z,18.91
2022-07-26T21:07:55.092Z,18.89
2022-07-26T21:10:26.981Z,18.84
2022-07-26T21:12:59.649Z,18.80
2022-07-26T21:15:28.440Z,18.77
2022-07-26T21:17:57.297Z,18.77
2022-07-26T21:20:25.668Z,18.74
2022-07-26T21:23:03.618Z,18.71
2022-07-26T21:25:41.596Z,18.71
2022-07-26T21:28:10.007Z,18.70
2022-07-26T21:30:38.535Z,18.66
2022-07-26T21:33:07.293Z,18.64
2022-07-26T21:35:35.836Z,18.63
2022-07-26T21:38:04.245Z,18.59
2022-07-26T21:40:32.645Z,18.55
2022-07-26T21:43:01.099Z,18.51
2022-07-26T21:45:29.556Z,18.49
2022-07-26T21:47:57.985Z,18.46
2022-07-26T21:50:27.276Z,18.41
2022-07-26T21:52:55.633Z,18.36
2022-07-26T21:55:23.960Z,18.34
2022-07-26T21:57:52.349Z,18.32
2022-07-26T22:00:20.712Z,18.29
2022-07-26T22:02:49.122Z,18.26
2022-07-26T22:05:37.441Z,18.23
2022-07-26T22:08:10.764Z,18.20
2022-07-26T22:10:44.260Z,18.18
2022-07-26T22:13:13.969Z,18.13
2022-07-26T22:15:43.275Z,18.09
2022-07-26T22:18:12.013Z,18.08
2022-07-26T22:20:41.263Z,18.04
2022-07-26T22:23:11.340Z,17.99
2022-07-26T22:25:40.154Z,17.95
2022-07-26T22:28:10.173Z,17.89
2022-07-26T22:30:39.674Z,17.84
2022-07-26T22:33:11.184Z,17.79
2022-07-26T22:35:39.658Z,17.75
2022-07-26T22:38:10.654Z,17.70
2022-07-26T22:40:40.854Z,17.67
2022-07-26T22:43:10.279Z,17.65
2022-07-26T22:45:38.724Z,17.60
2022-07-26T22:48:08.996Z,17.58
2022-07-26T22:50:38.497Z,17.56
2022-07-26T22:53:07.186Z,17.54
2022-07-26T22:55:35.721Z,17.50
2022-07-26T22:58:04.243Z,17.47
2022-07-26T23:00:32.771Z,17.45
2022-07-26T23:03:01.267Z,17.41
2022-07-26T23:05:45.264Z,17.38
2022-07-26T23:11:04.820Z,17.22
2022-07-26T23:13:33.808Z,17.14
2022-07-26T23:16:02.532Z,17.08
2022-07-26T23:18:32.821Z,17.01
2022-07-26T23:21:01.828Z,16.96
2022-07-26T23:23:32.362Z,16.94
2022-07-26T23:26:01.352Z,16.89
2022-07-26T23:28:36.981Z,16.86
2022-07-26T23:31:08.408Z,16.81
2022-07-26T23:33:50.755Z,16.77
2022-07-26T23:36:25.992Z,16.73
2022-07-26T23:38:55.914Z,16.68
2022-07-26T23:41:24.905Z,16.65
2022-07-26T23:43:54.325Z,16.61
2022-07-26T23:46:23.727Z,16.57
2022-07-26T23:48:52.941Z,16.53
2022-07-26T23:51:22.539Z,16.47
2022-07-26T23:53:51.290Z,16.40
2022-07-26T23:56:19.881Z,16.36
2022-07-26T23:58:48.646Z,16.33
